Jeanne Arain — WDG5186 — position and weather

sailwx.info

Track history (hours):
 
Tides and Currents Weather Stations Pressure Air Temp Water Temp Dewpoint Dewpoint Depression Visibility Wind Speed Wind Dir Waves Ship Positions

Jeanne Arain

Owner: Wheeler, Mike C, Garibaldi, OR. More information available from US FCC via Universal Licensing System and Coast Guard Vessel Documentation Center.

Last reported at 2018-Jun-20 20:34 UTC. Time now 2018-Jun-20 23:07 UTC.
Position N 46°54' W 124°06'.

MMSI: 367544180.

Date/timePositionNaut miles runAvg speedWind from/ knotsBaromVisibWave heightAir tempDewpointWater temp
2018-Jun-20 20:34N 46°54' W 124°06'0 0.0
2018-Jun-20 20:11N 46°54' W 124°06'0 0.0
2018-Jun-20 05:22N 46°55' W 124°07'0 0.0
2018-Jun-20 04:46N 46°55' W 124°07'0 0.0
2018-Jun-20 04:29N 46°55' W 124°07'0 0.0
2018-Jun-20 01:44N 46°55' W 124°07'0 0.0
2018-Jun-20 01:30N 46°55' W 124°07'0 0.0
2018-Jun-20 01:01N 46°55' W 124°07'0 0.0
2018-Jun-20 00:17N 46°55' W 124°07'0 0.0
2018-Jun-20 00:00N 46°55' W 124°07'0 0.0
2018-Jun-19 23:29N 46°55' W 124°07'0 0.0
2018-Jun-19 23:00N 46°55' W 124°07'0 0.0
2018-Jun-19 22:29N 46°55' W 124°07'0 0.0
2018-Jun-19 22:00N 46°55' W 124°07'0 0.0
2018-Jun-19 21:05N 46°55' W 124°07'0 0.0
2018-Jun-19 20:53N 46°55' W 124°07'0 0.0
2018-Jun-18 13:23N 46°55' W 124°07'0 0.0
2018-Jun-18 12:57N 46°55' W 124°07'0 0.0
2018-Jun-18 09:00N 46°55' W 124°07'0 0.0
2018-Jun-18 08:28N 46°55' W 124°07'0 0.0
2018-Jun-18 07:53N 46°55' W 124°07'0 0.0
2018-Jun-18 03:30N 46°55' W 124°07'0 0.0
2018-Jun-18 00:52N 46°55' W 124°07'0 0.0
2018-Jun-18 00:23N 46°55' W 124°07'0 0.0
2018-Jun-17 23:59N 46°55' W 124°07'0 0.0
2018-Jun-17 22:19N 46°55' W 124°07'0 0.0
2018-Jun-17 21:57N 46°55' W 124°07'2 0.0
2018-Jun-16 06:56N 46°55' W 124°09'1 3.3
2018-Jun-16 06:30N 46°55' W 124°11'3 6.8
2018-Jun-16 06:00N 46°55' W 124°16'3 6.7
2018-Jun-16 05:30N 46°56' W 124°21'3 6.0
2018-Jun-16 05:01N 46°57' W 124°25'4 6.7
2018-Jun-16 04:28N 46°57' W 124°30'4 6.6
2018-Jun-16 03:53N 46°58' W 124°36'3 6.9
2018-Jun-16 03:30N 46°59' W 124°39'4 7.0
2018-Jun-16 03:00N 46°60' W 124°44'2 0.5
2018-Jun-15 23:07N 46°58' W 124°46'0 2.1
2018-Jun-15 23:00N 46°58' W 124°46'0 0.5
2018-Jun-15 22:30N 46°58' W 124°46'1 1.6
2018-Jun-15 21:58N 46°59' W 124°47'  
2018-Jun-13 04:17N 47°44' W 125°02'0 0.4
2018-Jun-13 03:48N 47°43' W 125°02'0 0.8
2018-Jun-13 03:28N 47°43' W 125°02'1 1.9
2018-Jun-13 03:01N 47°42' W 125°02'  
Track history (hours):
 
Tides and Currents Weather Stations Pressure Air Temp Water Temp Dewpoint Dewpoint Depression Visibility Wind Speed Wind Dir Waves Ship Positions

Jeanne Arain

Owner: Wheeler, Mike C, Garibaldi, OR. More information available from US FCC via Universal Licensing System and Coast Guard Vessel Documentation Center.

Last reported at 2018-Jun-20 20:34 UTC. Time now 2018-Jun-20 23:07 UTC.
Position N 46°54' W 124°06'.

MMSI: 367544180.

Date/timePositionNaut miles runAvg speedWind from/ knotsBaromVisibWave heightAir tempDewpointWater temp
2018-Jun-20 20:34N 46°54' W 124°06'0 0.0
2018-Jun-20 20:11N 46°54' W 124°06'0 0.0
2018-Jun-20 05:22N 46°55' W 124°07'0 0.0
2018-Jun-20 04:46N 46°55' W 124°07'0 0.0
2018-Jun-20 04:29N 46°55' W 124°07'0 0.0
2018-Jun-20 01:44N 46°55' W 124°07'0 0.0
2018-Jun-20 01:30N 46°55' W 124°07'0 0.0
2018-Jun-20 01:01N 46°55' W 124°07'0 0.0
2018-Jun-20 00:17N 46°55' W 124°07'0 0.0
2018-Jun-20 00:00N 46°55' W 124°07'0 0.0
2018-Jun-19 23:29N 46°55' W 124°07'0 0.0
2018-Jun-19 23:00N 46°55' W 124°07'0 0.0
2018-Jun-19 22:29N 46°55' W 124°07'0 0.0
2018-Jun-19 22:00N 46°55' W 124°07'0 0.0
2018-Jun-19 21:05N 46°55' W 124°07'0 0.0
2018-Jun-19 20:53N 46°55' W 124°07'0 0.0
2018-Jun-18 13:23N 46°55' W 124°07'0 0.0
2018-Jun-18 12:57N 46°55' W 124°07'0 0.0
2018-Jun-18 09:00N 46°55' W 124°07'0 0.0
2018-Jun-18 08:28N 46°55' W 124°07'0 0.0
2018-Jun-18 07:53N 46°55' W 124°07'0 0.0
2018-Jun-18 03:30N 46°55' W 124°07'0 0.0
2018-Jun-18 00:52N 46°55' W 124°07'0 0.0
2018-Jun-18 00:23N 46°55' W 124°07'0 0.0
2018-Jun-17 23:59N 46°55' W 124°07'0 0.0
2018-Jun-17 22:19N 46°55' W 124°07'0 0.0
2018-Jun-17 21:57N 46°55' W 124°07'2 0.0
2018-Jun-16 06:56N 46°55' W 124°09'1 3.3
2018-Jun-16 06:30N 46°55' W 124°11'3 6.8
2018-Jun-16 06:00N 46°55' W 124°16'3 6.7
2018-Jun-16 05:30N 46°56' W 124°21'3 6.0
2018-Jun-16 05:01N 46°57' W 124°25'4 6.7
2018-Jun-16 04:28N 46°57' W 124°30'4 6.6
2018-Jun-16 03:53N 46°58' W 124°36'3 6.9
2018-Jun-16 03:30N 46°59' W 124°39'4 7.0
2018-Jun-16 03:00N 46°60' W 124°44'2 0.5
2018-Jun-15 23:07N 46°58' W 124°46'0 2.1
2018-Jun-15 23:00N 46°58' W 124°46'0 0.5
2018-Jun-15 22:30N 46°58' W 124°46'1 1.6
2018-Jun-15 21:58N 46°59' W 124°47'  
2018-Jun-13 04:17N 47°44' W 125°02'0 0.4
2018-Jun-13 03:48N 47°43' W 125°02'0 0.8
2018-Jun-13 03:28N 47°43' W 125°02'1 1.9
2018-Jun-13 03:01N 47°42' W 125°02'  

Dump ship's entire track history